sensor_id;sensor_type;location;lat;lon;timestamp;pressure;altitude;pressure_sealevel;temperature;humidity
9225;BME280;4647;48.072;11.616;2023-02-23T00:02:20;94899.53;;;5.69;74.89
9225;BME280;4647;48.072;11.616;2023-02-23T00:04:49;94906.44;;;5.73;75.14
9225;BME280;4647;48.072;11.616;2023-02-23T00:07:17;94906.44;;;5.70;75.32
9225;BME280;4647;48.072;11.616;2023-02-23T00:09:47;94906.06;;;5.71;75.31
9225;BME280;4647;48.072;11.616;2023-02-23T00:12:17;94904.53;;;5.74;75.43
9225;BME280;4647;48.072;11.616;2023-02-23T00:14:50;94906.06;;;5.75;75.43
9225;BME280;4647;48.072;11.616;2023-02-23T00:17:19;94912.19;;;5.75;75.48
9225;BME280;4647;48.072;11.616;2023-02-23T00:19:48;94902.97;;;5.66;75.65
9225;BME280;4647;48.072;11.616;2023-02-23T00:22:17;94869.25;;;5.40;75.92
9225;BME280;4647;48.072;11.616;2023-02-23T00:24:46;94902.22;;;5.72;75.50
9225;BME280;4647;48.072;11.616;2023-02-23T00:27:14;94918.72;;;5.74;75.47
9225;BME280;4647;48.072;11.616;2023-02-23T00:29:45;94906.06;;;5.75;75.53
9225;BME280;4647;48.072;11.616;2023-02-23T00:32:17;94910.66;;;5.78;75.53
9225;BME280;4647;48.072;11.616;2023-02-23T00:34:46;94916.00;;;5.81;75.47
9225;BME280;4647;48.072;11.616;2023-02-23T00:37:16;94880.34;;;5.56;75.41
9225;BME280;4647;48.072;11.616;2023-02-23T00:39:46;94909.09;;;5.84;75.42
9225;BME280;4647;48.072;11.616;2023-02-23T00:44:53;94913.72;;;5.91;75.42
9225;BME280;4647;48.072;11.616;2023-02-23T00:47:24;94907.56;;;6.01;75.34
9225;BME280;4647;48.072;11.616;2023-02-23T00:49:53;94904.09;;;6.00;75.26
9225;BME280;4647;48.072;11.616;2023-02-23T00:52:22;94907.19;;;5.99;75.60
9225;BME280;4647;48.072;11.616;2023-02-23T00:54:51;94907.56;;;5.97;75.64
9225;BME280;4647;48.072;11.616;2023-02-23T00:57:20;94903.31;;;6.03;75.43
9225;BME280;4647;48.072;11.616;2023-02-23T00:59:49;94899.06;;;6.09;75.18
9225;BME280;4647;48.072;11.616;2023-02-23T01:02:18;94906.38;;;6.09;75.40
9225;BME280;4647;48.072;11.616;2023-02-23T01:04:49;94905.22;;;6.10;75.42
9225;BME280;4647;48.072;11.616;2023-02-23T01:07:17;94905.59;;;6.08;75.38
9225;BME280;4647;48.072;11.616;2023-02-23T01:09:50;94918.25;;;6.11;75.69
9225;BME280;4647;48.072;11.616;2023-02-23T01:12:18;94896.78;;;6.01;75.38
9225;BME280;4647;48.072;11.616;2023-02-23T01:14:46;94913.25;;;6.21;75.33
9225;BME280;4647;48.072;11.616;2023-02-23T01:17:15;94912.03;;;6.32;74.94
9225;BME280;4647;48.072;11.616;2023-02-23T01:19:43;94915.88;;;6.35;75.00
9225;BME280;4647;48.072;11.616;2023-02-23T01:22:15;94916.25;;;6.33;75.06
9225;BME280;4647;48.072;11.616;2023-02-23T01:24:43;94910.47;;;6.42;74.87
9225;BME280;4647;48.072;11.616;2023-02-23T01:27:12;94918.13;;;6.47;74.79
9225;BME280;4647;48.072;11.616;2023-02-23T01:29:40;94914.63;;;6.54;74.56
9225;BME280;4647;48.072;11.616;2023-02-23T01:32:08;94913.88;;;6.53;74.58
9225;BME280;4647;48.072;11.616;2023-02-23T01:34:37;94911.22;;;6.50;74.76
9225;BME280;4647;48.072;11.616;2023-02-23T01:37:05;94909.72;;;6.41;75.00
9225;BME280;4647;48.072;11.616;2023-02-23T01:39:36;94908.97;;;6.34;75.22
9225;BME280;4647;48.072;11.616;2023-02-23T01:42:09;94908.97;;;6.34;75.46
9225;BME280;4647;48.072;11.616;2023-02-23T01:47:50;94898.94;;;6.38;75.42
9225;BME280;4647;48.072;11.616;2023-02-23T01:50:19;94903.19;;;6.42;75.37
9225;BME280;4647;48.072;11.616;2023-02-23T01:52:50;94903.53;;;6.48;75.43
9225;BME280;4647;48.072;11.616;2023-02-23T01:55:22;94906.63;;;6.43;75.63
9225;BME280;4647;48.072;11.616;2023-02-23T01:57:58;94912.00;;;6.43;75.87
9225;BME280;4647;48.072;11.616;2023-02-23T02:00:28;94905.81;;;6.50;75.62
9225;BME280;4647;48.072;11.616;2023-02-23T02:03:03;94890.50;;;6.43;75.58
9225;BME280;4647;48.072;11.616;2023-02-23T02:05:37;94903.91;;;6.50;75.85
9225;BME280;4647;48.072;11.616;2023-02-23T02:08:07;94895.75;;;6.68;75.10
9225;BME280;4647;48.072;11.616;2023-02-23T02:10:39;94891.22;;;6.47;75.82
9225;BME280;4647;48.072;11.616;2023-02-23T02:13:13;94879.25;;;6.55;75.36
9225;BME280;4647;48.072;11.616;2023-02-23T02:15:57;94890.03;;;6.52;75.80
9225;BME280;4647;48.072;11.616;2023-02-23T02:18:38;94894.72;;;6.40;76.02
9225;BME280;4647;48.072;11.616;2023-02-23T02:21:38;94883.19;;;6.40;76.08
9225;BME280;4647;48.072;11.616;2023-02-23T02:27:22;94870.50;;;6.37;75.92
9225;BME280;4647;48.072;11.616;2023-02-23T02:30:20;94878.19;;;6.38;76.34
9225;BME280;4647;48.072;11.616;2023-02-23T02:33:22;94878.22;;;6.31;76.48
9225;BME280;4647;48.072;11.616;2023-02-23T02:39:11;94885.91;;;6.40;76.42
9225;BME280;4647;48.072;11.616;2023-02-23T02:41:52;94857.44;;;6.35;75.81
9225;BME280;4647;48.072;11.616;2023-02-23T02:44:31;94878.09;;;6.56;75.85
9225;BME280;4647;48.072;11.616;2023-02-23T02:47:08;94872.66;;;6.67;75.31
9225;BME280;4647;48.072;11.616;2023-02-23T02:49:45;94870.78;;;6.64;75.12
9225;BME280;4647;48.072;11.616;2023-02-23T02:52:18;94872.66;;;6.70;74.92
9225;BME280;4647;48.072;11.616;2023-02-23T02:54:54;94870.72;;;6.71;75.09
9225;BME280;4647;48.072;11.616;2023-02-23T02:57:25;94878.38;;;6.76;74.69
9225;BME280;4647;48.072;11.616;2023-02-23T02:59:56;94872.25;;;6.72;74.88
9225;BME280;4647;48.072;11.616;2023-02-23T03:02:39;94868.84;;;6.64;75.04
9225;BME280;4647;48.072;11.616;2023-02-23T03:05:23;94872.72;;;6.56;75.46
9225;BME280;4647;48.072;11.616;2023-02-23T03:08:10;94863.47;;;6.57;75.36
9225;BME280;4647;48.072;11.616;2023-02-23T03:11:01;94870.13;;;6.38;76.19
9225;BME280;4647;48.072;11.616;2023-02-23T03:13:51;94868.31;;;6.18;76.79
9225;BME280;4647;48.072;11.616;2023-02-23T03:16:41;94876.03;;;6.05;77.67
9225;BME280;4647;48.072;11.616;2023-02-23T03:19:27;94883.00;;;5.81;78.31
9225;BME280;4647;48.072;11.616;2023-02-23T03:22:17;94848.88;;;5.60;78.04
9225;BME280;4647;48.072;11.616;2023-02-23T03:25:05;94881.84;;;5.82;78.65
9225;BME280;4647;48.072;11.616;2023-02-23T03:27:54;94883.72;;;5.89;78.43
9225;BME280;4647;48.072;11.616;2023-02-23T03:30:45;94888.38;;;5.81;78.44
9225;BME280;4647;48.072;11.616;2023-02-23T03:33:32;94876.88;;;5.73;78.53
9225;BME280;4647;48.072;11.616;2023-02-23T03:36:18;94879.16;;;5.68;78.94
9225;BME280;4647;48.072;11.616;2023-02-23T03:39:04;94892.63;;;5.71;79.21
9225;BME280;4647;48.072;11.616;2023-02-23T03:41:51;94885.72;;;5.63;79.77
9225;BME280;4647;48.072;11.616;2023-02-23T03:44:40;94884.13;;;5.91;78.79
9225;BME280;4647;48.072;11.616;2023-02-23T03:47:24;94854.59;;;5.73;78.39
9225;BME280;4647;48.072;11.616;2023-02-23T03:50:10;94888.34;;;5.88;78.57
9225;BME280;4647;48.072;11.616;2023-02-23T03:52:55;94879.53;;;5.91;78.69
9225;BME280;4647;48.072;11.616;2023-02-23T03:55:41;94871.09;;;5.68;78.76
9225;BME280;4647;48.072;11.616;2023-02-23T03:58:30;94891.78;;;5.89;78.93
9225;BME280;4647;48.072;11.616;2023-02-23T04:01:15;94888.34;;;5.99;78.34
9225;BME280;4647;48.072;11.616;2023-02-23T04:03:58;94890.66;;;5.97;78.51
9225;BME280;4647;48.072;11.616;2023-02-23T04:06:42;94890.69;;;5.93;78.59
9225;BME280;4647;48.072;11.616;2023-02-23T04:09:24;94894.13;;;5.90;78.94
9225;BME280;4647;48.072;11.616;2023-02-23T04:12:10;94891.81;;;5.99;78.69
9225;BME280;4647;48.072;11.616;2023-02-23T04:14:55;94880.69;;;5.90;78.26
9225;BME280;4647;48.072;11.616;2023-02-23T04:17:27;94880.69;;;5.97;78.39
9225;BME280;4647;48.072;11.616;2023-02-23T04:20:16;94891.03;;;5.88;78.63
9225;BME280;4647;48.072;11.616;2023-02-23T04:22:44;94889.16;;;5.74;78.75
9225;BME280;4647;48.072;11.616;2023-02-23T04:25:14;94890.69;;;5.75;79.00
9225;BME280;4647;48.072;11.616;2023-02-23T04:27:43;94866.94;;;5.56;78.91
9225;BME280;4647;48.072;11.616;2023-02-23T04:30:12;94899.16;;;5.74;78.78
9225;BME280;4647;48.072;11.616;2023-02-23T04:32:43;94904.53;;;5.63;79.22
9225;BME280;4647;48.072;11.616;2023-02-23T04:35:12;94893.78;;;5.63;79.02
9225;BME280;4647;48.072;11.616;2023-02-23T04:37:41;94895.72;;;5.52;79.38
9225;BME280;4647;48.072;11.616;2023-02-23T04:40:10;94897.66;;;5.44;79.62
9225;BME280;4647;48.072;11.616;2023-02-23T04:42:39;94898.41;;;5.34;79.99
9225;BME280;4647;48.072;11.616;2023-02-23T04:45:09;94899.19;;;5.31;80.30
9225;BME280;4647;48.072;11.616;2023-02-23T04:47:37;94897.66;;;5.30;80.25
9225;BME280;4647;48.072;11.616;2023-02-23T04:50:10;94903.78;;;5.20;80.61
9225;BME280;4647;48.072;11.616;2023-02-23T04:52:38;94893.06;;;5.09;81.12
9225;BME280;4647;48.072;11.616;2023-02-23T04:55:12;94902.66;;;5.10;81.31
9225;BME280;4647;48.072;11.616;2023-02-23T04:57:42;94900.75;;;5.25;80.95
9225;BME280;4647;48.072;11.616;2023-02-23T05:00:12;94905.69;;;5.19;81.20
9225;BME280;4647;48.072;11.616;2023-02-23T05:02:40;94904.56;;;5.24;81.05
9225;BME280;4647;48.072;11.616;2023-02-23T05:05:12;94909.53;;;5.18;81.31
9225;BME280;4647;48.072;11.616;2023-02-23T05:07:40;94909.19;;;5.23;81.10
9225;BME280;4647;48.072;11.616;2023-02-23T05:10:10;94900.34;;;5.16;81.08
9225;BME280;4647;48.072;11.616;2023-02-23T05:12:38;94902.66;;;5.21;81.13
9225;BME280;4647;48.072;11.616;2023-02-23T05:15:07;94907.63;;;5.15;81.26
9225;BME280;4647;48.072;11.616;2023-02-23T05:17:38;94899.97;;;5.14;81.26
9225;BME280;4647;48.072;11.616;2023-02-23T05:20:12;94901.50;;;5.08;81.05
9225;BME280;4647;48.072;11.616;2023-02-23T05:22:40;94902.25;;;5.05;81.30
9225;BME280;4647;48.072;11.616;2023-02-23T05:25:09;94896.91;;;4.98;81.57
9225;BME280;4647;48.072;11.616;2023-02-23T05:27:37;94902.28;;;4.98;81.44
9225;BME280;4647;48.072;11.616;2023-02-23T05:30:08;94901.47;;;4.86;81.77
9225;BME280;4647;48.072;11.616;2023-02-23T05:32:36;94904.16;;;4.83;82.19
9225;BME280;4647;48.072;11.616;2023-02-23T05:35:05;94892.66;;;4.79;82.18
9225;BME280;4647;48.072;11.616;2023-02-23T05:37:37;94909.13;;;4.74;82.63
9225;BME280;4647;48.072;11.616;2023-02-23T05:40:07;94908.75;;;4.75;82.64
9225;BME280;4647;48.072;11.616;2023-02-23T05:42:36;94908.38;;;4.73;82.82
9225;BME280;4647;48.072;11.616;2023-02-23T05:45:06;94908.00;;;4.78;82.66
9225;BME280;4647;48.072;11.616;2023-02-23T05:47:35;94900.69;;;4.75;82.76
9225;BME280;4647;48.072;11.616;2023-02-23T05:50:04;94906.84;;;4.79;82.81
9225;BME280;4647;48.072;11.616;2023-02-23T05:52:39;94905.69;;;4.84;82.58
9225;BME280;4647;48.072;11.616;2023-02-23T05:55:08;94904.53;;;4.81;82.64
9225;BME280;4647;48.072;11.616;2023-02-23T05:57:38;94912.97;;;4.87;82.60
9225;BME280;4647;48.072;11.616;2023-02-23T06:00:09;94914.50;;;4.91;82.41
9225;BME280;4647;48.072;11.616;2023-02-23T06:02:38;94922.22;;;5.00;82.27
9225;BME280;4647;48.072;11.616;2023-02-23T06:05:07;94917.22;;;5.02;81.86
9225;BME280;4647;48.072;11.616;2023-02-23T06:07:35;94910.72;;;5.00;81.81
9225;BME280;4647;48.072;11.616;2023-02-23T06:10:08;94921.81;;;5.09;81.64
9225;BME280;4647;48.072;11.616;2023-02-23T06:12:37;94914.53;;;5.13;81.47
9225;BME280;4647;48.072;11.616;2023-02-23T06:15:06;94922.22;;;5.11;81.61
9225;BME280;4647;48.072;11.616;2023-02-23T06:17:34;94928.34;;;5.29;81.39
9225;BME280;4647;48.072;11.616;2023-02-23T06:20:04;94912.97;;;5.44;80.77
9225;BME280;4647;48.072;11.616;2023-02-23T06:22:32;94919.91;;;5.52;80.40
9225;BME280;4647;48.072;11.616;2023-02-23T06:25:01;94925.66;;;5.50;80.48
9225;BME280;4647;48.072;11.616;2023-02-23T06:27:32;94926.78;;;5.78;79.90
9225;BME280;4647;48.072;11.616;2023-02-23T06:30:01;94935.22;;;5.98;78.97
9225;BME280;4647;48.072;11.616;2023-02-23T06:32:29;94939.75;;;6.15;78.21
9225;BME280;4647;48.072;11.616;2023-02-23T06:34:58;94932.09;;;6.21;77.42
9225;BME280;4647;48.072;11.616;2023-02-23T06:37:29;94937.81;;;6.30;77.58
9225;BME280;4647;48.072;11.616;2023-02-23T06:39:58;94935.47;;;6.39;77.14
9225;BME280;4647;48.072;11.616;2023-02-23T06:42:27;94943.53;;;6.46;77.02
9225;BME280;4647;48.072;11.616;2023-02-23T06:44:58;94935.81;;;6.48;76.69
9225;BME280;4647;48.072;11.616;2023-02-23T06:47:26;94947.28;;;6.66;76.27
9225;BME280;4647;48.072;11.616;2023-02-23T06:49:55;94944.13;;;6.78;76.02
9225;BME280;4647;48.072;11.616;2023-02-23T06:52:24;94939.47;;;6.86;75.48
9225;BME280;4647;48.072;11.616;2023-02-23T06:54:52;94945.94;;;6.99;75.22
9225;BME280;4647;48.072;11.616;2023-02-23T06:57:21;94946.25;;;7.12;74.95
9225;BME280;4647;48.072;11.616;2023-02-23T06:59:50;94945.13;;;7.06;75.34
9225;BME280;4647;48.072;11.616;2023-02-23T07:02:21;94925.16;;;7.00;75.13
9225;BME280;4647;48.072;11.616;2023-02-23T07:04:50;94956.13;;;7.29;75.17
9225;BME280;4647;48.072;11.616;2023-02-23T07:07:18;94947.53;;;7.45;74.46
9225;BME280;4647;48.072;11.616;2023-02-23T07:09:47;94954.75;;;7.55;73.93
9225;BME280;4647;48.072;11.616;2023-02-23T07:12:15;94952.28;;;7.75;73.08
9225;BME280;4647;48.072;11.616;2023-02-23T07:14:45;94960.31;;;7.86;72.50
9225;BME280;4647;48.072;11.616;2023-02-23T07:17:13;94954.00;;;7.99;72.04
9225;BME280;4647;48.072;11.616;2023-02-23T07:19:45;94957.00;;;8.09;71.79
9225;BME280;4647;48.072;11.616;2023-02-23T07:22:13;94959.63;;;8.16;71.57
9225;BME280;4647;48.072;11.616;2023-02-23T07:24:41;94960.69;;;8.22;71.58
9225;BME280;4647;48.072;11.616;2023-02-23T07:27:10;94957.06;;;8.39;71.09
9225;BME280;4647;48.072;11.616;2023-02-23T07:29:39;94958.13;;;8.49;70.53
9225;BME280;4647;48.072;11.616;2023-02-23T07:32:07;94952.97;;;8.61;70.54
9225;BME280;4647;48.072;11.616;2023-02-23T07:34:36;94961.63;;;8.80;69.53
9225;BME280;4647;48.072;11.616;2023-02-23T07:37:08;94959.22;;;8.85;69.33
9225;BME280;4647;48.072;11.616;2023-02-23T07:39:37;94961.28;;;9.05;69.02
9225;BME280;4647;48.072;11.616;2023-02-23T07:42:05;94955.78;;;9.12;68.58
9225;BME280;4647;48.072;11.616;2023-02-23T07:44:34;94961.41;;;9.25;68.31
9225;BME280;4647;48.072;11.616;2023-02-23T07:47:02;94948.59;;;9.29;67.38
9225;BME280;4647;48.072;11.616;2023-02-23T07:49:31;94961.38;;;9.51;67.19
9225;BME280;4647;48.072;11.616;2023-02-23T07:52:00;94958.56;;;9.59;66.50
9225;BME280;4647;48.072;11.616;2023-02-23T07:54:31;94969.19;;;9.69;66.94
9225;BME280;4647;48.072;11.616;2023-02-23T07:56:59;94962.91;;;9.76;66.43
9225;BME280;4647;48.072;11.616;2023-02-23T07:59:28;94976.16;;;9.94;66.05
9225;BME280;4647;48.072;11.616;2023-02-23T08:01:57;94978.97;;;10.10;65.62
9225;BME280;4647;48.072;11.616;2023-02-23T08:04:25;94971.19;;;10.12;65.34
9225;BME280;4647;48.072;11.616;2023-02-23T08:06:54;94974.53;;;10.20;65.35
9225;BME280;4647;48.072;11.616;2023-02-23T08:09:22;94982.56;;;10.27;65.42
9225;BME280;4647;48.072;11.616;2023-02-23T08:11:54;94980.91;;;10.53;64.63
9225;BME280;4647;48.072;11.616;2023-02-23T08:14:23;94978.75;;;10.64;64.11
9225;BME280;4647;48.072;11.616;2023-02-23T08:16:51;94982.78;;;10.75;64.16
9225;BME280;4647;48.072;11.616;2023-02-23T08:19:20;94984.94;;;10.84;63.71
9225;BME280;4647;48.072;11.616;2023-02-23T08:21:49;94977.03;;;10.73;63.73
9225;BME280;4647;48.072;11.616;2023-02-23T08:24:18;94965.63;;;10.62;63.57
9225;BME280;4647;48.072;11.616;2023-02-23T08:26:46;94979.47;;;10.68;64.31
9225;BME280;4647;48.072;11.616;2023-02-23T08:29:18;94981.88;;;11.02;63.23
9225;BME280;4647;48.072;11.616;2023-02-23T08:31:47;94978.94;;;11.13;63.09
9225;BME280;4647;48.072;11.616;2023-02-23T08:34:17;94950.06;;;10.86;63.12
9225;BME280;4647;48.072;11.616;2023-02-23T08:36:47;94984.72;;;11.15;62.86
9225;BME280;4647;48.072;11.616;2023-02-23T08:39:16;94980.19;;;10.88;63.56
9225;BME280;4647;48.072;11.616;2023-02-23T08:41:44;94978.41;;;10.62;64.87
9225;BME280;4647;48.072;11.616;2023-02-23T08:44:13;94983.06;;;10.81;64.70
9225;BME280;4647;48.072;11.616;2023-02-23T08:46:44;94989.50;;;11.07;63.61
9225;BME280;4647;48.072;11.616;2023-02-23T08:49:13;94972.38;;;11.10;63.70
9225;BME280;4647;48.072;11.616;2023-02-23T08:51:42;94977.19;;;11.22;63.16
9225;BME280;4647;48.072;11.616;2023-02-23T08:54:11;94976.50;;;11.34;62.92
9225;BME280;4647;48.072;11.616;2023-02-23T08:56:43;94981.13;;;11.37;62.84
9225;BME280;4647;48.072;11.616;2023-02-23T08:59:12;94982.00;;;11.31;62.97
9225;BME280;4647;48.072;11.616;2023-02-23T09:01:44;94979.41;;;11.44;62.78
9225;BME280;4647;48.072;11.616;2023-02-23T09:04:13;94980.88;;;11.48;62.86
9225;BME280;4647;48.072;11.616;2023-02-23T09:06:43;94979.94;;;11.55;62.42
9225;BME280;4647;48.072;11.616;2023-02-23T09:09:12;94985.78;;;11.53;62.53
9225;BME280;4647;48.072;11.616;2023-02-23T09:11:41;94984.59;;;11.54;62.71
9225;BME280;4647;48.072;11.616;2023-02-23T09:14:09;94978.97;;;11.29;63.24
9225;BME280;4647;48.072;11.616;2023-02-23T09:16:38;94978.63;;;10.71;64.70
9225;BME280;4647;48.072;11.616;2023-02-23T09:19:10;94981.63;;;10.76;65.22
9225;BME280;4647;48.072;11.616;2023-02-23T09:21:39;94992.53;;;10.93;64.44
9225;BME280;4647;48.072;11.616;2023-02-23T09:24:08;94984.06;;;11.07;63.53
9225;BME280;4647;48.072;11.616;2023-02-23T09:26:37;94981.59;;;11.32;63.43
9225;BME280;4647;48.072;11.616;2023-02-23T09:29:07;94992.94;;;10.91;64.48
9225;BME280;4647;48.072;11.616;2023-02-23T09:31:37;94992.84;;;11.15;64.45
9225;BME280;4647;48.072;11.616;2023-02-23T09:34:10;94995.47;;;11.18;64.06
9225;BME280;4647;48.072;11.616;2023-02-23T09:36:39;94991.28;;;11.50;63.42
9225;BME280;4647;48.072;11.616;2023-02-23T09:39:08;94989.38;;;11.14;63.65
9225;BME280;4647;48.072;11.616;2023-02-23T09:42:12;94987.19;;;10.89;65.37
9225;BME280;4647;48.072;11.616;2023-02-23T09:47:40;94992.84;;;11.67;63.15
9225;BME280;4647;48.072;11.616;2023-02-23T09:50:17;94990.22;;;11.63;62.63
9225;BME280;4647;48.072;11.616;2023-02-23T09:52:52;94970.69;;;11.68;62.02
9225;BME280;4647;48.072;11.616;2023-02-23T09:55:21;95004.00;;;11.89;62.21
9225;BME280;4647;48.072;11.616;2023-02-23T09:57:51;95002.75;;;11.74;62.26
9225;BME280;4647;48.072;11.616;2023-02-23T10:00:21;95004.34;;;11.55;63.97
9225;BME280;4647;48.072;11.616;2023-02-23T10:03:03;94992.59;;;11.61;62.39
9225;BME280;4647;48.072;11.616;2023-02-23T10:05:39;94999.97;;;11.77;62.54
9225;BME280;4647;48.072;11.616;2023-02-23T10:08:18;94979.03;;;11.61;62.11
9225;BME280;4647;48.072;11.616;2023-02-23T10:10:55;94997.16;;;11.64;62.88
9225;BME280;4647;48.072;11.616;2023-02-23T10:13:32;95001.91;;;11.60;62.82
9225;BME280;4647;48.072;11.616;2023-02-23T10:16:11;94997.84;;;11.68;62.91
9225;BME280;4647;48.072;11.616;2023-02-23T10:18:46;95001.09;;;11.80;62.07
9225;BME280;4647;48.072;11.616;2023-02-23T10:21:26;94991.38;;;12.27;61.30
9225;BME280;4647;48.072;11.616;2023-02-23T10:24:02;94990.97;;;12.87;59.89
9225;BME280;4647;48.072;11.616;2023-02-23T10:26:37;94991.66;;;13.16;58.03
9225;BME280;4647;48.072;11.616;2023-02-23T10:29:20;94993.44;;;12.52;59.55
9225;BME280;4647;48.072;11.616;2023-02-23T10:31:53;94995.31;;;12.84;59.45
9225;BME280;4647;48.072;11.616;2023-02-23T10:34:26;94987.75;;;13.05;58.63
9225;BME280;4647;48.072;11.616;2023-02-23T10:37:00;94995.50;;;12.48;59.39
9225;BME280;4647;48.072;11.616;2023-02-23T10:39:30;94984.75;;;12.86;58.69
9225;BME280;4647;48.072;11.616;2023-02-23T10:42:02;94990.25;;;12.41;59.92
9225;BME280;4647;48.072;11.616;2023-02-23T10:44:36;94987.59;;;12.54;59.62
9225;BME280;4647;48.072;11.616;2023-02-23T10:47:09;94982.97;;;12.67;58.81
9225;BME280;4647;48.072;11.616;2023-02-23T10:49:43;94989.34;;;12.32;59.69
9225;BME280;4647;48.072;11.616;2023-02-23T10:52:20;94986.13;;;12.37;60.48
9225;BME280;4647;48.072;11.616;2023-02-23T10:54:51;94986.63;;;12.32;59.63
9225;BME280;4647;48.072;11.616;2023-02-23T10:57:22;94979.69;;;12.31;59.92
9225;BME280;4647;48.072;11.616;2023-02-23T11:00:01;94981.22;;;11.99;60.71
9225;BME280;4647;48.072;11.616;2023-02-23T11:02:30;94983.59;;;12.13;60.49
9225;BME280;4647;48.072;11.616;2023-02-23T11:05:01;94975.41;;;12.29;60.46
9225;BME280;4647;48.072;11.616;2023-02-23T11:07:33;94981.38;;;12.24;60.24
9225;BME280;4647;48.072;11.616;2023-02-23T11:10:23;94972.41;;;11.95;60.43
9225;BME280;4647;48.072;11.616;2023-02-23T11:12:51;94970.84;;;12.97;58.02
9225;BME280;4647;48.072;11.616;2023-02-23T11:15:27;94975.28;;;13.71;55.49
9225;BME280;4647;48.072;11.616;2023-02-23T11:17:57;94949.41;;;12.99;56.44
9225;BME280;4647;48.072;11.616;2023-02-23T11:20:30;94957.63;;;12.70;57.83
9225;BME280;4647;48.072;11.616;2023-02-23T11:23:08;94968.47;;;12.57;58.23
9225;BME280;4647;48.072;11.616;2023-02-23T11:25:41;94961.47;;;12.44;58.96
9225;BME280;4647;48.072;11.616;2023-02-23T11:28:16;94968.97;;;12.52;59.22
9225;BME280;4647;48.072;11.616;2023-02-23T11:30:47;94955.81;;;12.51;59.44
9225;BME280;4647;48.072;11.616;2023-02-23T11:33:24;94955.03;;;12.38;59.16
9225;BME280;4647;48.072;11.616;2023-02-23T11:36:11;94944.59;;;12.36;59.40
9225;BME280;4647;48.072;11.616;2023-02-23T11:38:44;94949.94;;;12.40;60.04
9225;BME280;4647;48.072;11.616;2023-02-23T11:41:19;94948.22;;;12.87;57.81
9225;BME280;4647;48.072;11.616;2023-02-23T11:43:49;94913.28;;;12.73;58.09
9225;BME280;4647;48.072;11.616;2023-02-23T11:46:19;94944.00;;;13.12;57.31
9225;BME280;4647;48.072;11.616;2023-02-23T11:48:51;94945.28;;;12.53;58.60
9225;BME280;4647;48.072;11.616;2023-02-23T11:51:23;94935.34;;;12.75;57.57
9225;BME280;4647;48.072;11.616;2023-02-23T11:53:56;94937.94;;;12.66;57.91
9225;BME280;4647;48.072;11.616;2023-02-23T11:56:27;94935.06;;;12.86;56.90
9225;BME280;4647;48.072;11.616;2023-02-23T11:58:59;94930.81;;;12.98;56.61
9225;BME280;4647;48.072;11.616;2023-02-23T12:01:40;94933.09;;;12.86;56.84
9225;BME280;4647;48.072;11.616;2023-02-23T12:04:22;94928.34;;;13.03;56.57
9225;BME280;4647;48.072;11.616;2023-02-23T12:09:55;94919.78;;;13.17;55.88
9225;BME280;4647;48.072;11.616;2023-02-23T12:12:27;94917.28;;;13.23;55.80
9225;BME280;4647;48.072;11.616;2023-02-23T12:15:03;94930.31;;;14.13;54.23
9225;BME280;4647;48.072;11.616;2023-02-23T12:17:40;94930.09;;;13.73;52.50
9225;BME280;4647;48.072;11.616;2023-02-23T12:20:14;94923.53;;;13.83;53.12
9225;BME280;4647;48.072;11.616;2023-02-23T12:22:46;94907.31;;;13.80;51.68
9225;BME280;4647;48.072;11.616;2023-02-23T12:25:23;94909.34;;;13.89;52.28
9225;BME280;4647;48.072;11.616;2023-02-23T12:28:00;94913.53;;;14.71;50.57
9225;BME280;4647;48.072;11.616;2023-02-23T12:30:38;94880.19;;;14.11;51.74
9225;BME280;4647;48.072;11.616;2023-02-23T12:33:11;94910.13;;;14.89;50.02
9225;BME280;4647;48.072;11.616;2023-02-23T12:35:45;94901.91;;;14.58;49.65
9225;BME280;4647;48.072;11.616;2023-02-23T12:38:24;94877.47;;;14.46;49.89
9225;BME280;4647;48.072;11.616;2023-02-23T12:41:04;94907.84;;;14.22;51.43
9225;BME280;4647;48.072;11.616;2023-02-23T12:43:38;94911.03;;;14.64;50.50
9225;BME280;4647;48.072;11.616;2023-02-23T12:46:14;94900.66;;;13.81;52.42
9225;BME280;4647;48.072;11.616;2023-02-23T12:48:52;94883.88;;;14.39;51.26
9225;BME280;4647;48.072;11.616;2023-02-23T12:51:29;94898.38;;;14.70;50.03
9225;BME280;4647;48.072;11.616;2023-02-23T12:54:00;94898.69;;;14.51;50.79
9225;BME280;4647;48.072;11.616;2023-02-23T12:56:44;94897.31;;;13.64;53.76
9225;BME280;4647;48.072;11.616;2023-02-23T12:59:27;94902.13;;;13.95;52.93
9225;BME280;4647;48.072;11.616;2023-02-23T13:01:59;94900.44;;;14.23;52.41
9225;BME280;4647;48.072;11.616;2023-02-23T13:04:38;94889.47;;;14.35;51.73
9225;BME280;4647;48.072;11.616;2023-02-23T13:07:17;94897.06;;;14.40;51.76
9225;BME280;4647;48.072;11.616;2023-02-23T13:10:05;94886.50;;;13.26;54.52
9225;BME280;4647;48.072;11.616;2023-02-23T13:12:47;94890.91;;;13.45;54.62
9225;BME280;4647;48.072;11.616;2023-02-23T13:15:22;94888.53;;;13.35;55.15
9225;BME280;4647;48.072;11.616;2023-02-23T13:17:57;94885.81;;;13.35;55.72
9225;BME280;4647;48.072;11.616;2023-02-23T13:20:32;94889.00;;;13.33;55.50
9225;BME280;4647;48.072;11.616;2023-02-23T13:23:09;94856.25;;;12.44;57.83
9225;BME280;4647;48.072;11.616;2023-02-23T13:25:47;94894.94;;;13.15;56.56
9225;BME280;4647;48.072;11.616;2023-02-23T13:28:31;94895.06;;;13.12;55.80
9225;BME280;4647;48.072;11.616;2023-02-23T13:31:02;94890.16;;;13.07;56.36
9225;BME280;4647;48.072;11.616;2023-02-23T13:33:31;94889.81;;;12.79;57.28
9225;BME280;4647;48.072;11.616;2023-02-23T13:36:04;94882.28;;;12.71;58.13
9225;BME280;4647;48.072;11.616;2023-02-23T13:38:38;94890.66;;;12.64;58.55
9225;BME280;4647;48.072;11.616;2023-02-23T13:41:14;94882.13;;;12.36;59.79
9225;BME280;4647;48.072;11.616;2023-02-23T13:43:59;94882.88;;;12.37;60.00
9225;BME280;4647;48.072;11.616;2023-02-23T13:46:33;94880.38;;;12.42;59.87
9225;BME280;4647;48.072;11.616;2023-02-23T13:49:14;94885.38;;;12.44;60.12
9225;BME280;4647;48.072;11.616;2023-02-23T13:51:51;94891.03;;;12.37;59.96
9225;BME280;4647;48.072;11.616;2023-02-23T13:54:24;94885.69;;;12.33;60.04
9225;BME280;4647;48.072;11.616;2023-02-23T13:56:59;94873.09;;;12.39;60.00
9225;BME280;4647;48.072;11.616;2023-02-23T13:59:39;94878.63;;;13.03;58.54
9225;BME280;4647;48.072;11.616;2023-02-23T14:02:33;94885.03;;;13.09;57.63
9225;BME280;4647;48.072;11.616;2023-02-23T14:05:06;94881.13;;;13.10;57.16
9225;BME280;4647;48.072;11.616;2023-02-23T14:07:43;94880.72;;;13.37;56.84
9225;BME280;4647;48.072;11.616;2023-02-23T14:10:18;94875.34;;;13.46;55.62